sensor_id;sensor_type;location;lat;lon;timestamp;P1;durP1;ratioP1;P2;durP2;ratioP2
34711;SDS011;20941;42.408;25.634;2022-09-28T00:01:49;6.50;;;3.53;;
34711;SDS011;20941;42.408;25.634;2022-09-28T00:04:15;17.50;;;7.15;;
34711;SDS011;20941;42.408;25.634;2022-09-28T00:06:41;29.50;;;10.95;;
34711;SDS011;20941;42.408;25.634;2022-09-28T00:09:07;21.98;;;10.45;;
34711;SDS011;20941;42.408;25.634;2022-09-28T00:11:32;10.23;;;6.45;;
34711;SDS011;20941;42.408;25.634;2022-09-28T00:13:58;10.65;;;5.60;;
34711;SDS011;20941;42.408;25.634;2022-09-28T00:16:32;7.82;;;4.82;;
34711;SDS011;20941;42.408;25.634;2022-09-28T00:18:59;9.60;;;5.25;;
34711;SDS011;20941;42.408;25.634;2022-09-28T00:21:29;7.68;;;5.28;;
34711;SDS011;20941;42.408;25.634;2022-09-28T00:23:58;15.88;;;9.10;;
34711;SDS011;20941;42.408;25.634;2022-09-28T00:26:37;19.27;;;15.18;;
34711;SDS011;20941;42.408;25.634;2022-09-28T00:29:05;17.00;;;11.13;;
34711;SDS011;20941;42.408;25.634;2022-09-28T00:31:32;15.20;;;9.52;;
34711;SDS011;20941;42.408;25.634;2022-09-28T00:33:59;18.55;;;12.50;;
34711;SDS011;20941;42.408;25.634;2022-09-28T00:36:29;15.32;;;10.32;;
34711;SDS011;20941;42.408;25.634;2022-09-28T00:38:56;7.43;;;6.20;;
34711;SDS011;20941;42.408;25.634;2022-09-28T00:41:23;9.48;;;5.20;;
34711;SDS011;20941;42.408;25.634;2022-09-28T00:43:49;8.60;;;5.28;;
34711;SDS011;20941;42.408;25.634;2022-09-28T00:48:41;6.47;;;3.25;;
34711;SDS011;20941;42.408;25.634;2022-09-28T00:53:41;2.22;;;2.03;;
34711;SDS011;20941;42.408;25.634;2022-09-28T00:56:09;2.38;;;1.92;;
34711;SDS011;20941;42.408;25.634;2022-09-28T00:58:40;6.28;;;3.15;;
34711;SDS011;20941;42.408;25.634;2022-09-28T01:01:10;35.58;;;8.65;;
34711;SDS011;20941;42.408;25.634;2022-09-28T01:03:36;15.90;;;4.65;;
34711;SDS011;20941;42.408;25.634;2022-09-28T01:06:05;7.90;;;3.47;;
34711;SDS011;20941;42.408;25.634;2022-09-28T01:08:32;11.82;;;3.70;;
34711;SDS011;20941;42.408;25.634;2022-09-28T01:10:59;15.48;;;4.50;;
34711;SDS011;20941;42.408;25.634;2022-09-28T01:13:25;24.50;;;5.70;;
34711;SDS011;20941;42.408;25.634;2022-09-28T01:16:06;44.53;;;11.57;;
34711;SDS011;20941;42.408;25.634;2022-09-28T01:27:00;6.55;;;3.65;;
34711;SDS011;20941;42.408;25.634;2022-09-28T01:29:52;6.32;;;3.72;;
34711;SDS011;20941;42.408;25.634;2022-09-28T01:32:33;9.93;;;6.80;;
34711;SDS011;20941;42.408;25.634;2022-09-28T01:35:20;15.15;;;12.15;;
34711;SDS011;20941;42.408;25.634;2022-09-28T01:38:33;22.50;;;15.68;;
34711;SDS011;20941;42.408;25.634;2022-09-28T01:40:55;21.23;;;15.15;;
34711;SDS011;20941;42.408;25.634;2022-09-28T01:43:24;23.25;;;14.88;;
34711;SDS011;20941;42.408;25.634;2022-09-28T01:46:04;22.67;;;14.73;;
34711;SDS011;20941;42.408;25.634;2022-09-28T01:48:37;19.23;;;16.02;;
34711;SDS011;20941;42.408;25.634;2022-09-28T01:51:10;30.20;;;16.52;;
34711;SDS011;20941;42.408;25.634;2022-09-28T01:53:48;20.02;;;15.00;;
34711;SDS011;20941;42.408;25.634;2022-09-28T01:56:26;22.40;;;14.75;;
34711;SDS011;20941;42.408;25.634;2022-09-28T01:58:58;16.85;;;12.35;;
34711;SDS011;20941;42.408;25.634;2022-09-28T02:01:51;18.92;;;11.43;;
34711;SDS011;20941;42.408;25.634;2022-09-28T02:04:25;13.80;;;9.02;;
34711;SDS011;20941;42.408;25.634;2022-09-28T02:07:17;9.13;;;6.60;;
34711;SDS011;20941;42.408;25.634;2022-09-28T02:09:58;7.65;;;4.70;;
34711;SDS011;20941;42.408;25.634;2022-09-28T02:12:34;8.85;;;4.30;;
